Time;durP1;ratioP1;P1;durP2;ratioP2;P2;SDS_P1;SDS_P2;PMS_P1;PMS_P2;Temp;Humidity;BMP_temperature;BMP_pressure;BME280_temperature;BME280_humidity;BME280_pressure;Samples;Min_cycle;Max_cycle;Signal;HPM_P1;HPM_P2
2022/05/12 00:00:00;;;;;;;17.75;1.95;;;;;;;11.50;93.84;101315.00;5011372;28;20069;-79
2022/05/12 00:02:26;;;;;;;16.55;2.47;;;;;;;11.50;94.02;101318.53;5004639;28;20026;-79
2022/05/12 00:04:51;;;;;;;17.17;1.77;;;;;;;11.50;94.22;101329.31;5001588;28;20520;-79
2022/05/12 00:07:16;;;;;;;10.85;2.05;;;;;;;11.52;93.86;101329.97;5001777;28;20411;-79
2022/05/12 00:09:42;;;;;;;5.40;1.27;;;;;;;11.51;93.99;101331.00;5003338;28;20022;-80
2022/05/12 00:12:07;;;;;;;12.23;1.83;;;;;;;11.46;93.96;101325.31;5008334;28;20030;-79
2022/05/12 00:14:33;;;;;;;14.73;1.50;;;;;;;11.42;93.46;101334.75;5012036;28;20347;-79
2022/05/12 00:17:01;;;;;;;5.57;2.17;;;;;;;11.45;93.75;101345.16;5011634;28;20065;-80
2022/05/12 00:19:28;;;;;;;7.97;1.55;;;;;;;11.45;93.80;101350.56;5012552;28;20094;-78
2022/05/12 00:21:54;;;;;;;9.70;1.75;;;;;;;11.44;93.72;101354.28;5012099;28;20026;-79
2022/05/12 00:24:19;;;;;;;11.73;2.03;;;;;;;11.44;93.69;101354.28;4992155;28;20026;-78
2022/05/12 00:26:45;;;;;;;15.48;1.88;;;;;;;11.41;93.65;101360.03;5013077;28;20136;-79
2022/05/12 00:29:10;;;;;;;9.07;2.17;;;;;;;11.41;93.85;101355.47;5008483;28;20057;-79
2022/05/12 00:31:38;;;;;;;9.25;1.70;;;;;;;11.41;94.08;101365.41;5004874;28;20070;-79
2022/05/12 00:34:07;;;;;;;6.80;1.50;;;;;;;11.42;93.82;101364.38;5002741;28;20126;-80
2022/05/12 00:36:32;;;;;;;10.32;1.80;;;;;;;11.36;94.08;101355.16;5005703;28;20106;-79
2022/05/12 00:38:58;;;;;;;9.27;2.03;;;;;;;11.34;93.89;101357.19;5005624;28;20030;-78
2022/05/12 00:41:23;;;;;;;11.02;2.03;;;;;;;11.34;94.02;101375.19;5004621;28;20026;-79
2022/05/12 00:43:55;;;;;;;12.40;2.17;;;;;;;11.31;94.07;101362.91;5010192;28;20442;-79
2022/05/12 00:46:31;;;;;;;9.38;1.95;;;;;;;11.32;94.04;101367.31;5014049;28;20006;-79
2022/05/12 00:48:59;;;;;;;11.70;2.17;;;;;;;11.30;94.18;101369.34;5011458;28;20062;-80
2022/05/12 00:51:32;;;;;;;14.25;2.53;;;;;;;11.27;93.65;101368.81;5006882;28;20027;-80
2022/05/12 00:54:00;;;;;;;12.38;1.90;;;;;;;11.28;93.96;101365.13;5008524;28;20098;-80
2022/05/12 00:56:25;;;;;;;8.73;2.13;;;;;;;11.23;94.04;101364.81;4989397;28;20046;-80
2022/05/12 00:59:00;;;;;;;10.63;2.00;;;;;;;11.20;93.92;101366.81;5007413;28;20014;-79
2022/05/12 01:01:25;;;;;;;10.32;1.58;;;;;;;11.16;94.00;101360.13;5005136;28;20498;-80
2022/05/12 01:03:51;;;;;;;11.82;2.08;;;;;;;11.17;93.86;101364.50;5004356;28;20085;-79
2022/05/12 01:06:17;;;;;;;14.85;1.90;;;;;;;11.19;93.63;101369.72;4991684;28;20030;-79
2022/05/12 01:08:43;;;;;;;10.65;2.17;;;;;;;11.21;94.23;101373.06;5006781;28;20061;-79
2022/05/12 01:11:17;;;;;;;9.27;2.05;;;;;;;11.19;93.79;101375.94;5006297;28;20034;-79
2022/05/12 01:13:53;;;;;;;8.00;1.90;;;;;;;11.23;94.34;101376.41;4996759;28;21215;-80
2022/05/12 01:16:55;;;;;;;12.20;2.30;;;;;;;11.26;94.22;101377.94;4995028;28;20113;-79
2022/05/12 01:19:29;;;;;;;8.32;2.20;;;;;;;11.26;94.24;101383.31;4958845;28;20413;-80
2022/05/12 01:21:56;;;;;;;7.38;2.10;;;;;;;11.28;94.23;101386.69;4999215;28;20034;-80
2022/05/12 01:24:24;;;;;;;6.55;2.60;;;;;;;11.29;94.20;101382.97;4997401;28;20394;-80
2022/05/12 01:26:49;;;;;;;;;;;;;;;11.32;94.26;101377.22;5013093;28;20121;-80
2022/05/12 01:29:15;;;;;;;8.50;2.28;;;;;;;11.32;94.14;101378.09;4996936;28;20005;-81
2022/05/12 01:31:40;;;;;;;8.18;2.90;;;;;;;11.35;94.00;101380.44;5003035;28;20026;-79
2022/05/12 01:34:07;;;;;;;7.50;2.67;;;;;;;11.38;94.07;101390.03;4998359;28;20038;-81
2022/05/12 01:36:34;;;;;;;13.68;2.92;;;;;;;11.39;94.23;101394.38;4995932;28;20026;-81
2022/05/12 01:38:59;;;;;;;15.57;4.13;;;;;;;11.38;93.96;101393.56;4995038;28;20466;-81
2022/05/12 01:41:25;;;;;;;6.22;2.63;;;;;;;11.37;93.92;101402.66;5002134;28;20034;-80
2022/05/12 01:43:50;;;;;;;6.45;2.80;;;;;;;11.37;94.04;101397.28;4995657;28;20044;-81
2022/05/12 01:46:15;;;;;;;9.82;3.38;;;;;;;11.36;94.05;101402.81;4996124;28;20117;-80
2022/05/12 01:48:41;;;;;;;18.55;3.85;;;;;;;11.35;93.92;101411.94;4995460;28;20487;-80
2022/05/12 01:51:06;;;;;;;13.77;3.25;;;;;;;11.34;93.87;101408.38;4996104;28;20514;-80
2022/05/12 01:53:32;;;;;;;13.55;3.17;;;;;;;11.34;93.96;101404.84;5004671;28;20034;-79
2022/05/12 01:55:58;;;;;;;13.43;3.22;;;;;;;11.34;93.56;101408.38;5013052;28;20041;-80
2022/05/12 01:58:24;;;;;;;16.92;3.55;;;;;;;11.34;93.75;101407.53;5017913;28;20030;-79
2022/05/12 02:00:50;;;;;;;11.60;3.50;;;;;;;11.33;93.78;101412.09;5017302;28;20026;-79
2022/05/12 02:03:15;;;;;;;16.77;3.05;;;;;;;11.33;93.53;101414.78;5013929;28;20031;-80
2022/05/12 02:05:42;;;;;;;13.73;3.38;;;;;;;11.31;93.68;101422.19;5012038;28;20065;-79
2022/05/12 02:08:08;;;;;;;18.25;3.60;;;;;;;11.34;93.64;101429.09;5000677;28;20049;-81
2022/05/12 02:10:37;;;;;;;16.48;3.30;;;;;;;11.33;93.68;101432.81;5003644;28;20077;-80
2022/05/12 02:13:07;;;;;;;9.10;3.50;;;;;;;11.31;93.60;101426.75;5000929;28;20022;-79
2022/05/12 02:15:32;;;;;;;11.85;4.00;;;;;;;11.32;93.34;101436.50;4995676;28;20034;-80
2022/05/12 02:17:58;;;;;;;13.13;4.10;;;;;;;11.31;93.23;101434.84;4994057;28;20042;-79
2022/05/12 02:20:24;;;;;;;10.52;3.92;;;;;;;11.30;93.40;101435.88;5007263;28;20018;-78
2022/05/12 02:22:49;;;;;;;15.35;4.10;;;;;;;11.27;93.61;101436.19;5010089;28;20343;-78
2022/05/12 02:25:14;;;;;;;16.25;3.83;;;;;;;11.26;93.01;101442.59;4986628;28;20446;-79
2022/05/12 02:27:45;;;;;;;15.18;3.60;;;;;;;11.25;93.29;101440.94;5001374;28;20013;-79
2022/05/12 02:30:12;;;;;;;13.75;4.35;;;;;;;11.25;92.79;101446.31;5012396;28;20037;-80
2022/05/12 02:32:37;;;;;;;16.13;4.00;;;;;;;11.20;92.42;101453.03;5011894;28;20153;-79
2022/05/12 02:35:03;;;;;;;11.85;3.40;;;;;;;11.22;92.53;101450.19;5100836;22;20465;-76
2022/05/12 02:37:28;;;;;;;18.25;4.15;;;;;;;11.19;92.26;101458.63;5032183;28;20034;-76
2022/05/12 02:39:55;;;;;;;17.90;4.03;;;;;;;11.20;92.06;101460.28;5031877;28;20084;-77
2022/05/12 02:42:21;;;;;;;15.15;4.05;;;;;;;11.20;92.35;101466.53;5032248;28;20080;-77
2022/05/12 02:44:46;;;;;;;15.38;3.83;;;;;;;11.17;92.01;101466.88;5032309;28;20065;-77
2022/05/12 02:47:12;;;;;;;10.55;3.47;;;;;;;11.17;91.83;101469.56;5032061;28;20491;-76
2022/05/12 02:49:37;;;;;;;8.70;3.83;;;;;;;11.17;92.06;101464.16;5031924;28;20558;-77
2022/05/12 02:52:04;;;;;;;17.88;4.07;;;;;;;11.15;92.21;101468.03;5030861;28;20018;-76
2022/05/12 02:54:29;;;;;;;10.00;3.83;;;;;;;11.13;92.15;101476.28;5030841;28;20040;-76
2022/05/12 02:56:55;;;;;;;13.88;3.88;;;;;;;11.08;91.92;101478.66;5031886;28;20029;-77
2022/05/12 02:59:22;;;;;;;12.50;4.00;;;;;;;11.07;92.26;101482.38;5032241;28;20033;-77
2022/05/12 03:01:47;;;;;;;17.38;4.72;;;;;;;11.05;91.94;101476.28;5030826;28;20029;-76
2022/05/12 03:04:12;;;;;;;12.88;3.85;;;;;;;11.03;92.32;101482.88;5031778;28;20040;-77
2022/05/12 03:06:38;;;;;;;13.75;4.32;;;;;;;11.02;92.11;101486.56;5030828;28;20044;-78
2022/05/12 03:09:04;;;;;;;16.38;4.15;;;;;;;10.99;92.09;101488.59;5032640;28;20033;-76
2022/05/12 03:11:29;;;;;;;19.77;4.32;;;;;;;10.99;92.33;101488.59;5032681;28;20079;-76
2022/05/12 03:13:55;;;;;;;13.52;4.25;;;;;;;10.97;92.30;101495.16;5030791;28;20037;-75
2022/05/12 03:16:20;;;;;;;12.88;4.22;;;;;;;10.95;92.25;101489.97;5032293;28;20036;-76
2022/05/12 03:18:47;;;;;;;14.27;4.75;;;;;;;10.95;92.16;101499.88;5032416;28;20068;-75
2022/05/12 03:21:13;;;;;;;11.48;4.45;;;;;;;10.93;92.06;101502.75;5031333;28;20079;-76
2022/05/12 03:23:40;;;;;;;13.93;3.97;;;;;;;10.93;91.96;101507.28;5032709;28;20025;-77
2022/05/12 03:26:06;;;;;;;13.60;4.07;;;;;;;10.92;91.64;101514.50;5032107;28;20374;-77
2022/05/12 03:28:31;;;;;;;9.75;4.00;;;;;;;10.90;91.66;101524.63;5031514;28;20091;-76
2022/05/12 03:30:56;;;;;;;14.77;3.95;;;;;;;10.90;91.18;101521.06;5013806;28;20030;-76
2022/05/12 03:33:22;;;;;;;13.70;4.10;;;;;;;10.89;91.24;101522.94;5031266;28;20374;-76
2022/05/12 03:35:49;;;;;;;12.27;4.05;;;;;;;10.86;91.17;101525.13;5032515;28;20397;-75
2022/05/12 03:38:14;;;;;;;14.38;4.63;;;;;;;10.85;91.13;101520.72;5040211;28;20075;-75
2022/05/12 03:40:40;;;;;;;11.75;3.78;;;;;;;10.84;90.76;101527.13;5049385;28;20049;-75
2022/05/12 03:43:05;;;;;;;13.20;4.07;;;;;;;10.84;91.07;101529.81;5038434;28;20038;-76
2022/05/12 03:45:32;;;;;;;12.93;4.20;;;;;;;10.84;91.07;101540.59;5020432;28;20034;-77
2022/05/12 03:47:58;;;;;;;;;;;;;;;10.81;91.36;101540.94;5035723;28;20018;-76
2022/05/12 03:50:26;;;;;;;7.70;3.50;;;;;;;10.77;91.27;101543.97;5034917;28;20480;-76
2022/05/12 03:52:54;;;;;;;10.93;3.50;;;;;;;10.78;91.21;101542.09;5035197;28;20025;-76
2022/05/12 03:55:23;;;;;;;11.23;4.00;;;;;;;10.74;91.50;101544.31;5027528;28;20164;-76
2022/05/12 03:57:51;;;;;;;13.50;4.13;;;;;;;10.72;91.07;101540.94;5035104;28;20032;-74
2022/05/12 04:00:19;;;;;;;13.85;4.25;;;;;;;10.72;91.52;101538.22;5035943;28;20040;-76
2022/05/12 04:02:46;;;;;;;17.25;4.25;;;;;;;10.68;91.38;101544.94;5036588;28;20078;-78
2022/05/12 04:05:11;;;;;;;21.33;4.65;;;;;;;10.67;91.49;101562.13;5036474;28;20041;-76
2022/05/12 04:07:43;;;;;;;15.45;4.45;;;;;;;10.63;91.60;101563.44;5036117;28;20021;-76
2022/05/12 04:10:10;;;;;;;21.58;4.57;;;;;;;10.58;91.88;101571.16;5035432;28;20076;-76
2022/05/12 04:12:35;;;;;;;15.15;4.55;;;;;;;10.55;91.88;101568.81;5034319;28;20451;-76
2022/05/12 04:15:01;;;;;;;11.13;4.25;;;;;;;10.53;91.89;101568.97;5034332;28;20025;-77
2022/05/12 04:17:26;;;;;;;16.98;4.30;;;;;;;10.52;92.05;101569.13;5033095;28;20022;-76
2022/05/12 04:19:52;;;;;;;10.70;4.50;;;;;;;10.49;92.53;101575.69;5035428;28;20025;-76
2022/05/12 04:22:18;;;;;;;20.88;4.90;;;;;;;10.48;92.36;101578.56;5042153;28;20092;-77
2022/05/12 04:24:43;;;;;;;17.00;4.75;;;;;;;10.51;92.64;101578.22;5044623;28;20045;-76
2022/05/12 04:27:09;;;;;;;19.02;4.68;;;;;;;10.53;92.99;101576.19;5039542;28;20065;-75
2022/05/12 04:29:39;;;;;;;14.68;4.88;;;;;;;10.57;93.06;101577.56;5034440;28;20440;-76
2022/05/12 04:32:05;;;;;;;16.00;4.68;;;;;;;10.63;93.29;101578.75;5032484;28;20036;-77
2022/05/12 04:37:14;;;;;;;21.48;4.68;;;;;;;10.72;92.96;101585.88;5034446;28;20086;-76
2022/05/12 04:39:39;;;;;;;13.00;3.85;;;;;;;10.79;92.91;101592.25;5033784;28;20037;-77
2022/05/12 04:42:05;;;;;;;14.45;4.35;;;;;;;10.83;92.51;101592.78;5034088;28;20056;-76
2022/05/12 04:44:30;;;;;;;13.35;4.00;;;;;;;10.91;92.39;101598.19;5032996;28;20029;-76
2022/05/12 04:46:55;;;;;;;19.88;4.75;;;;;;;10.95;91.89;101595.00;5018468;28;20385;-77
2022/05/12 04:49:22;;;;;;;17.30;4.05;;;;;;;11.01;91.11;101595.34;5022687;28;20891;-77
2022/05/12 04:51:48;;;;;;;13.00;3.83;;;;;;;11.12;90.90;101597.69;5033216;28;20044;-77
2022/05/12 04:54:14;;;;;;;19.10;5.32;;;;;;;11.21;90.46;101607.47;5033206;28;20037;-75
2022/05/12 04:56:40;;;;;;;17.92;4.05;;;;;;;11.30;89.90;101614.56;5034012;28;20097;-76
2022/05/12 04:59:07;;;;;;;10.43;4.47;;;;;;;11.40;89.05;101607.16;5034890;28;20489;-75
2022/05/12 05:01:33;;;;;;;14.45;3.75;;;;;;;11.44;88.67;101621.13;5033753;28;20025;-78
2022/05/12 05:04:00;;;;;;;11.48;3.15;;;;;;;11.48;87.73;101621.63;5019614;28;20045;-79
2022/05/12 05:06:27;;;;;;;12.10;3.47;;;;;;;11.53;87.71;101612.03;5031505;28;20040;-79
2022/05/12 05:08:52;;;;;;;15.68;4.15;;;;;;;11.60;87.41;101623.81;5030244;28;20052;-78
2022/05/12 05:11:18;;;;;;;11.95;3.30;;;;;;;11.64;86.56;101624.31;5028999;28;20442;-79
2022/05/12 05:13:43;;;;;;;13.20;3.35;;;;;;;11.69;86.02;101627.34;5024809;28;20041;-78
2022/05/12 05:16:09;;;;;;;9.27;3.20;;;;;;;11.75;85.95;101628.53;5020865;28;20044;-77
2022/05/12 05:18:36;;;;;;;12.02;2.80;;;;;;;11.76;85.62;101638.28;5019725;28;20033;-77
2022/05/12 05:21:02;;;;;;;6.85;3.03;;;;;;;11.81;85.15;101635.94;5020243;28;20018;-77
2022/05/12 05:23:28;;;;;;;8.20;2.85;;;;;;;11.90;85.31;101640.34;5019695;28;20323;-78
2022/05/12 05:25:53;;;;;;;14.88;3.20;;;;;;;11.97;84.91;101640.47;5034633;28;20053;-81
2022/05/12 05:28:19;;;;;;;11.75;2.90;;;;;;;12.08;84.14;101638.28;5034884;28;20061;-84
2022/05/12 05:30:44;;;;;;;9.25;3.30;;;;;;;12.16;83.68;101639.25;5041505;28;20029;-80
2022/05/12 05:33:10;;;;;;;21.17;4.20;;;;;;;12.22;83.51;101639.41;5043835;28;20026;-80
2022/05/12 05:35:36;;;;;;;13.02;2.28;;;;;;;12.33;82.88;101635.50;5031712;28;20088;-79
2022/05/12 05:38:02;;;;;;;9.07;2.25;;;;;;;12.40;82.36;101651.81;5017318;28;20112;-78
2022/05/12 05:40:28;;;;;;;10.27;2.60;;;;;;;12.50;81.86;101649.78;5020498;28;20030;-80
2022/05/12 05:42:55;;;;;;;12.77;3.10;;;;;;;12.63;81.50;101655.44;5023375;28;20048;-81
2022/05/12 05:45:20;;;;;;;10.43;3.13;;;;;;;12.72;80.74;101661.69;5024110;28;20076;-81
2022/05/12 05:47:51;;;;;;;11.27;2.90;;;;;;;12.87;80.51;101662.59;5022988;28;20033;-79
2022/05/12 05:50:19;;;;;;;9.68;3.20;;;;;;;12.92;78.96;101676.41;5019952;28;20437;-79
2022/05/12 05:55:29;;;;;;;11.48;2.20;;;;;;;13.20;78.03;101681.34;5019896;28;20104;-81
2022/05/12 05:58:00;;;;;;;9.85;2.38;;;;;;;13.61;78.73;101695.44;5017103;28;20073;-81
2022/05/12 06:00:28;;;;;;;13.77;2.70;;;;;;;14.08;76.56;101701.59;5021689;28;20033;-80
2022/05/12 06:02:53;;;;;;;10.43;2.17;;;;;;;14.65;73.00;101698.31;5026422;28;20029;-79
2022/05/12 06:05:21;;;;;;;10.02;2.25;;;;;;;15.33;69.84;101704.34;5033740;28;20034;-80
2022/05/12 06:07:46;;;;;;;12.45;1.98;;;;;;;16.00;66.28;101713.13;5035569;28;20587;-80
2022/05/12 06:10:12;;;;;;;10.00;1.70;;;;;;;16.91;65.34;101720.44;5035081;28;20025;-81
2022/05/12 06:12:38;;;;;;;17.70;2.90;;;;;;;17.95;62.12;101722.78;5041612;28;20017;-79
2022/05/12 06:15:04;;;;;;;6.72;1.92;;;;;;;18.84;57.23;101726.88;5027827;28;20112;-79
2022/05/12 06:17:30;;;;;;;4.00;2.13;;;;;;;19.45;54.93;101733.69;5027934;28;20060;-80
2022/05/12 06:19:55;;;;;;;14.80;2.35;;;;;;;19.86;52.51;101735.97;5023845;28;20576;-82
2022/05/12 06:22:21;;;;;;;16.35;3.00;;;;;;;20.00;51.77;101735.88;5029596;28;20053;-81
2022/05/12 06:24:47;;;;;;;7.18;1.73;;;;;;;19.94;50.25;101749.38;5025168;28;20078;-79
2022/05/12 06:27:14;;;;;;;8.80;2.10;;;;;;;20.02;50.12;101755.63;5021939;28;20994;-82
2022/05/12 06:29:41;;;;;;;9.27;1.80;;;;;;;19.72;51.52;101758.97;5035717;28;20052;-81
2022/05/12 06:32:07;;;;;;;12.93;2.45;;;;;;;20.31;49.98;101760.41;5029410;28;20029;-80
2022/05/12 06:34:32;;;;;;;7.18;2.00;;;;;;;20.24;48.46;101765.09;5026244;28;20141;-80
2022/05/12 06:36:59;;;;;;;11.32;2.30;;;;;;;20.99;47.70;101766.88;5027742;28;20026;-80
2022/05/12 06:39:24;;;;;;;8.73;1.98;;;;;;;21.04;46.39;101776.06;5024935;28;20117;-81
2022/05/12 06:41:50;;;;;;;9.77;2.40;;;;;;;21.19;48.24;101775.66;5026017;28;20030;-82
2022/05/12 06:44:15;;;;;;;12.07;2.10;;;;;;;21.88;47.35;101769.88;5021606;28;20041;-80
2022/05/12 06:46:41;;;;;;;7.97;2.80;;;;;;;22.39;44.32;101773.09;5018632;28;20474;-81
2022/05/12 06:49:06;;;;;;;10.60;2.45;;;;;;;22.57;42.89;101776.56;5026735;28;20174;-78
2022/05/12 06:51:32;;;;;;;9.82;1.80;;;;;;;23.16;40.56;101770.97;5024131;28;20052;-77
2022/05/12 06:53:58;;;;;;;5.95;1.90;;;;;;;22.65;41.01;101780.84;5021595;28;20022;-79
2022/05/12 06:56:23;;;;;;;10.85;2.10;;;;;;;22.22;43.02;101778.44;5025759;28;20029;-80
2022/05/12 06:58:49;;;;;;;10.32;2.10;;;;;;;22.26;40.76;101782.38;5019636;28;20041;-81
2022/05/12 07:01:14;;;;;;;9.88;2.10;;;;;;;22.20;40.82;101777.88;5021489;28;20587;-80
2022/05/12 07:03:39;;;;;;;14.27;2.35;;;;;;;22.34;41.87;101780.13;5030327;28;20061;-80
2022/05/12 07:06:06;;;;;;;8.52;1.85;;;;;;;23.24;40.10;101791.72;5034287;28;20025;-79
2022/05/12 07:08:31;;;;;;;10.50;1.92;;;;;;;23.50;38.97;101786.75;5032382;28;20490;-82
2022/05/12 07:10:58;;;;;;;7.93;2.65;;;;;;;23.92;37.84;101789.19;5033043;28;20034;-79
2022/05/12 07:13:24;;;;;;;28.27;3.08;;;;;;;23.41;39.23;101800.88;5038863;28;20460;-83
2022/05/12 07:15:50;;;;;;;10.40;2.45;;;;;;;24.02;38.66;101805.88;5037333;28;20363;-81
2022/05/12 07:18:17;;;;;;;8.32;2.28;;;;;;;24.25;36.32;101805.72;5036831;28;20033;-80
2022/05/12 07:28:54;;;;;;;9.38;2.03;;;;;;;24.90;35.94;101806.97;5040095;28;20056;-84
2022/05/12 07:31:20;;;;;;;8.60;2.28;;;;;;;24.14;35.59;101809.38;5031915;28;20018;-83
2022/05/12 07:33:46;;;;;;;5.55;1.75;;;;;;;24.01;34.55;101821.53;5027794;28;20053;-81
2022/05/12 07:36:14;;;;;;;11.93;2.00;;;;;;;24.40;35.54;101818.03;5037359;28;20430;-81
2022/05/12 07:38:40;;;;;;;9.07;2.08;;;;;;;23.21;38.71;101822.44;5036524;28;20093;-79
2022/05/12 07:41:10;;;;;;;13.43;2.30;;;;;;;23.72;38.64;101822.63;5042675;28;20037;-80
2022/05/12 07:43:36;;;;;;;10.88;2.20;;;;;;;23.81;37.13;101827.50;5031086;28;20025;-78
2022/05/12 07:46:02;;;;;;;11.95;2.28;;;;;;;24.20;37.58;101824.91;5025988;28;20029;-80
2022/05/12 07:48:27;;;;;;;10.63;2.38;;;;;;;24.85;35.15;101828.94;5025506;28;20038;-81
2022/05/12 07:50:53;;;;;;;13.30;2.40;;;;;;;25.03;34.73;101829.72;5039608;28;20022;-84
2022/05/12 07:53:18;;;;;;;12.95;2.17;;;;;;;25.46;33.73;101831.69;5045616;28;20029;-84
2022/05/12 07:55:44;;;;;;;12.55;2.22;;;;;;;25.46;34.58;101831.69;5036704;28;20038;-83
2022/05/12 07:58:10;;;;;;;12.25;2.80;;;;;;;24.79;35.77;101831.88;5034357;28;20058;-80
2022/05/12 08:00:36;;;;;;;9.05;2.35;;;;;;;24.97;36.35;101834.34;5025794;28;20037;-83
2022/05/12 08:03:03;;;;;;;7.43;2.35;;;;;;;25.03;34.49;101838.81;5031321;28;20033;-82
2022/05/12 08:05:29;;;;;;;11.73;2.10;;;;;;;25.54;34.38;101836.75;5044737;28;20014;-84
2022/05/12 08:07:55;;;;;;;12.02;2.13;;;;;;;25.57;34.45;101844.50;5029820;28;20171;-80
2022/05/12 08:10:20;;;;;;;17.45;2.60;;;;;;;26.45;32.40;101827.69;5030410;28;20075;-79
2022/05/12 08:12:46;;;;;;;12.35;1.95;;;;;;;27.33;29.17;101829.91;4993554;28;20513;-80
2022/05/12 08:15:12;;;;;;;6.13;2.10;;;;;;;26.26;32.49;101831.97;5031566;28;20026;-81
2022/05/12 08:17:37;;;;;;;6.18;2.00;;;;;;;24.75;33.62;101831.56;5027540;28;20060;-81
2022/05/12 08:20:08;;;;;;;11.73;2.25;;;;;;;23.94;34.70;101820.03;5025512;28;20048;-82
2022/05/12 08:22:34;;;;;;;16.88;2.33;;;;;;;24.05;34.66;101832.88;5026677;28;20102;-82
2022/05/12 08:25:00;;;;;;;10.70;1.83;;;;;;;23.96;34.92;101829.72;5035363;28;20060;-82
2022/05/12 08:27:25;;;;;;;9.65;1.88;;;;;;;23.83;34.17;101833.59;5034551;28;20038;-82
2022/05/12 08:29:52;;;;;;;17.42;2.17;;;;;;;24.25;36.35;101833.22;5026463;28;20029;-81
2022/05/12 08:32:18;;;;;;;12.55;2.50;;;;;;;25.09;33.24;101837.81;5026021;28;20030;-79
2022/05/12 08:34:44;;;;;;;15.30;3.35;;;;;;;25.77;31.97;101843.03;5026808;28;20053;-80
2022/05/12 08:37:10;;;;;;;7.97;1.95;;;;;;;26.00;31.37;101848.28;5024538;28;20057;-79
2022/05/12 08:39:36;;;;;;;9.67;2.80;;;;;;;26.18;30.68;101854.53;5030500;28;20041;-80
2022/05/12 08:42:07;;;;;;;14.82;2.63;;;;;;;26.44;30.81;101848.13;5035397;28;20042;-80
2022/05/12 08:44:38;;;;;;;11.40;2.20;;;;;;;26.37;31.22;101846.69;5029418;28;20040;-80
2022/05/12 08:47:06;;;;;;;12.57;2.08;;;;;;;26.59;31.29;101855.69;5034784;28;20381;-82
2022/05/12 08:49:36;;;;;;;8.50;1.98;;;;;;;26.72;28.99;101851.66;5030744;28;20481;-81
2022/05/12 08:52:17;;;;;;;12.90;2.40;;;;;;;27.35;28.18;101858.09;5033753;28;20057;-81
2022/05/12 08:54:48;;;;;;;16.45;2.20;;;;;;;27.00;28.04;101849.63;5033462;28;20367;-81
2022/05/12 08:57:36;;;;;;;11.05;1.90;;;;;;;27.38;28.50;101853.13;5029539;28;20033;-82
2022/05/12 09:00:06;;;;;;;7.97;1.95;;;;;;;27.56;26.83;101847.09;5021671;28;20543;-81
2022/05/12 09:02:44;;;;;;;9.25;2.28;;;;;;;27.03;29.51;101849.06;5022747;28;20509;-80
2022/05/12 09:05:11;;;;;;;17.48;2.35;;;;;;;27.01;28.18;101845.75;5020510;28;20033;-79
2022/05/12 09:07:58;;;;;;;14.95;2.45;;;;;;;26.43;29.49;101853.88;5026176;28;20025;-81
2022/05/12 09:10:39;;;;;;;16.17;2.20;;;;;;;25.93;30.41;101846.81;5028178;28;20159;-80
2022/05/12 09:13:16;;;;;;;13.48;2.15;;;;;;;25.61;32.95;101851.16;5022299;28;20493;-80
2022/05/12 09:15:49;;;;;;;10.90;2.42;;;;;;;25.49;30.29;101847.72;5025553;28;20041;-80
2022/05/12 09:18:22;;;;;;;10.95;1.92;;;;;;;25.93;30.24;101847.66;5026221;28;20490;-81
2022/05/12 09:20:47;;;;;;;10.13;2.35;;;;;;;26.32;28.86;101850.22;5037681;28;20035;-79
2022/05/12 09:23:13;;;;;;;13.45;2.17;;;;;;;27.13;29.32;101843.59;5040269;28;20028;-80
2022/05/12 09:25:42;;;;;;;15.05;2.45;;;;;;;26.92;28.62;101839.91;5033117;28;20237;-82
2022/05/12 09:28:36;;;;;;;10.98;2.65;;;;;;;26.61;29.24;101847.97;5013333;28;20049;-82
2022/05/12 09:31:17;;;;;;;10.95;2.42;;;;;;;26.35;29.76;101849.69;5035078;28;20516;-82
2022/05/12 09:33:45;;;;;;;10.48;2.58;;;;;;;26.29;29.46;101856.28;5026815;28;20354;-82
2022/05/12 09:36:23;;;;;;;9.80;2.53;;;;;;;24.67;29.90;101860.34;5044070;28;20025;-81
2022/05/12 09:38:54;;;;;;;15.27;2.40;;;;;;;23.41;32.31;101850.34;5041230;28;20124;-79
2022/05/12 09:41:23;;;;;;;10.10;2.40;;;;;;;23.18;33.08;101859.44;5036127;28;20049;-80
2022/05/12 09:43:53;;;;;;;13.05;2.58;;;;;;;23.29;32.56;101852.25;5014429;28;20029;-82
2022/05/12 09:46:20;;;;;;;12.02;2.35;;;;;;;23.45;34.83;101861.66;5031775;28;20103;-82
2022/05/12 09:48:50;;;;;;;13.15;2.55;;;;;;;23.49;34.28;101859.28;5033731;28;20045;-80
2022/05/12 09:51:21;;;;;;;12.57;2.40;;;;;;;24.16;33.05;101848.47;5034453;28;20052;-82
2022/05/12 09:53:48;;;;;;;11.25;2.42;;;;;;;23.88;32.36;101857.56;5027677;28;20063;-82
2022/05/12 09:56:32;;;;;;;14.00;2.83;;;;;;;25.09;32.33;101859.88;5024977;28;20418;-83
2022/05/12 09:59:21;;;;;;;13.98;2.45;;;;;;;24.90;30.71;101869.47;5034867;28;20065;-82
2022/05/12 10:01:49;;;;;;;15.80;2.22;;;;;;;25.27;30.38;101867.00;5020382;28;20059;-83
2022/05/12 10:09:54;;;;;;;12.40;2.47;;;;;;;25.58;30.45;101867.38;5034320;28;20068;-83
2022/05/12 10:12:22;;;;;;;7.57;1.88;;;;;;;24.09;30.57;101875.28;5035205;28;20021;-81
2022/05/12 10:14:47;;;;;;;11.15;2.33;;;;;;;23.20;31.81;101862.81;5034884;28;20384;-83
2022/05/12 10:17:36;;;;;;;10.00;2.28;;;;;;;23.88;33.07;101861.19;5035368;28;20112;-82
2022/05/12 10:20:08;;;;;;;10.73;2.60;;;;;;;22.51;31.98;101857.06;5035522;28;20029;-81
2022/05/12 10:22:46;;;;;;;15.93;2.08;;;;;;;22.42;32.99;101858.47;5034711;28;20087;-83
2022/05/12 10:25:39;;;;;;;10.55;2.22;;;;;;;22.71;32.84;101855.88;5035496;28;20447;-82
2022/05/12 10:28:33;;;;;;;11.35;1.80;;;;;;;22.98;33.00;101848.00;5034063;28;20044;-84
2022/05/12 10:31:11;;;;;;;15.40;2.92;;;;;;;23.37;31.98;101853.78;5040825;28;20021;-86
2022/05/12 10:33:43;;;;;;;10.70;2.65;;;;;;;23.33;31.95;101858.97;5053852;28;20117;-85
2022/05/12 10:36:16;;;;;;;12.50;2.47;;;;;;;22.75;32.48;101846.09;5052330;28;20107;-84
2022/05/12 10:39:11;;;;;;;13.43;2.58;;;;;;;23.53;32.11;101847.53;5035536;28;20056;-80
2022/05/12 10:41:57;;;;;;;17.08;2.33;;;;;;;22.38;33.09;101851.81;5034143;28;20091;-80
2022/05/12 10:44:51;;;;;;;7.93;2.08;;;;;;;21.47;33.76;101861.94;5036281;28;20116;-80
2022/05/12 10:47:43;;;;;;;15.93;2.67;;;;;;;21.50;35.53;101855.16;5033297;28;20124;-82
2022/05/12 10:50:26;;;;;;;7.60;1.77;;;;;;;21.54;33.44;101851.75;5035561;28;20087;-81
2022/05/12 10:53:02;;;;;;;16.67;2.58;;;;;;;21.50;33.50;101855.16;5033484;28;20040;-82
2022/05/12 10:55:49;;;;;;;16.73;2.30;;;;;;;21.54;34.24;101846.25;5034797;28;20029;-80
2022/05/12 10:58:22;;;;;;;;;;;;;;;21.75;34.61;101844.06;5034904;28;20096;-81
2022/05/12 11:01:27;;;;;;;7.03;1.60;;;;;;;22.93;33.46;101848.72;5016746;28;19929;-83
2022/05/12 11:04:09;;;;;;;11.30;1.60;;;;;;;23.24;30.29;101846.66;4925768;29;20036;-82
2022/05/12 11:06:39;;;;;;;9.27;2.15;;;;;;;23.72;30.56;101850.13;5034627;28;20048;-83
2022/05/12 11:09:35;;;;;;;12.82;2.75;;;;;;;24.12;29.08;101850.06;5033853;28;20465;-84
2022/05/12 11:12:27;;;;;;;11.45;1.83;;;;;;;24.58;29.64;101852.75;5030344;28;20068;-81
2022/05/12 11:14:56;;;;;;;6.68;1.67;;;;;;;24.57;28.62;101851.94;5006729;28;20478;-82
2022/05/12 11:17:30;;;;;;;7.65;2.00;;;;;;;24.03;29.59;101843.28;5049081;28;20068;-81
2022/05/12 11:20:25;;;;;;;10.32;1.77;;;;;;;23.34;29.17;101844.13;5033688;28;20033;-82
2022/05/12 11:23:12;;;;;;;7.40;1.75;;;;;;;23.47;31.02;101847.69;5049181;28;20397;-83
2022/05/12 11:25:56;;;;;;;9.68;1.48;;;;;;;23.54;29.65;101843.72;5032626;28;20040;-82
2022/05/12 11:31:21;;;;;;;5.50;1.40;;;;;;;22.68;30.17;101845.38;5048608;28;20036;-81
2022/05/12 11:33:55;;;;;;;9.55;1.75;;;;;;;22.64;31.58;101849.66;5032144;28;20030;-83
2022/05/12 11:36:42;;;;;;;17.67;1.90;;;;;;;23.01;29.66;101850.28;5016054;28;20075;-82
2022/05/12 11:39:29;;;;;;;9.80;2.08;;;;;;;23.20;30.12;101842.75;5034020;28;20025;-80
2022/05/12 11:42:15;;;;;;;12.77;2.28;;;;;;;23.91;30.07;101859.00;5015223;28;20500;-83
2022/05/12 11:45:08;;;;;;;18.88;1.98;;;;;;;23.04;29.23;101858.06;5034186;28;20100;-82
2022/05/12 11:47:44;;;;;;;9.73;1.70;;;;;;;23.78;30.09;101860.97;4978556;28;20038;-83
2022/05/12 11:50:15;;;;;;;10.55;1.92;;;;;;;23.66;28.87;101855.50;5013266;28;20343;-82